Terminal Aerodrome Forecast
Issued by NWS Spokane, WA

Home | Current Version | Previous Version | Text Only | Print | Product List | Glossary On
Versions: 1 2 3 4 5 6 7 8 9 10 11 12 13 14 15 16 17
000
FTUS46 KOTX 211730
TAFEAT
TAF
KEAT 211730Z 2118/2218 12003KT P6SM -RA OVC015
     FM212000 14004KT 4SM -RA BR OVC010
     FM220000 VRB05KT 2SM -RA BR BKN015 OVC050
     FM220400 30015G25KT P6SM -SHRA BKN050 OVC100
     FM221500 24010G18KT P6SM SCT050 BKN150=

USA.gov is the U.S. government's official web portal to all federal, state and local government web resources and services.